Upper Freehold, New Jersey
Current Conditions -  °F | °C
As of 6:58 PM on Wednesday 17 Dec 2014 (Local Time) from KWRI Reporting Station
Clear Clear  
Wind Chill: 37°   Ceiling: Unl
Heat Index: 43°   Visibility: 10mi
Dew Point: 29°   Wind: 10mph
Humidity: 57%   Direction: 290°WNW
Pressure: 29.91"   Gusts: 20mph
Location:  40.1432°N, 74.5751°W
Report Text: KWRI 172358Z AUTO 29009G17KT 10SM CLR 06/M02 A2991 RMK AO2 SLP133 T00621017 10113 20062 52014
Loading
Personal Weather Stations






























Interactive Weather Map New forecast layout! Learn more

10-Day Weather Forecast

Advertisements
Track Severe Weather on mobile